createdAt,value
2022-09-23T00:01:38.414Z,9.43
2022-09-23T00:04:06.442Z,8.10
2022-09-23T00:06:34.378Z,10.70
2022-09-23T00:09:03.933Z,13.25
2022-09-23T00:11:31.954Z,16.75
2022-09-23T00:14:01.201Z,8.13
2022-09-23T00:16:32.599Z,9.07
2022-09-23T00:19:01.917Z,12.27
2022-09-23T00:21:30.419Z,9.20
2022-09-23T00:23:58.408Z,11.80
2022-09-23T00:26:27.866Z,8.20
2022-09-23T00:28:55.875Z,11.70
2022-09-23T00:31:26.111Z,13.30
2022-09-23T00:33:54.781Z,10.88
2022-09-23T00:36:22.678Z,11.75
2022-09-23T00:38:50.615Z,10.25
2022-09-23T00:41:19.058Z,11.52
2022-09-23T00:43:50.336Z,8.70
2022-09-23T00:46:21.727Z,8.85
2022-09-23T00:48:54.535Z,9.57
2022-09-23T00:51:25.897Z,8.95
2022-09-23T00:53:54.318Z,9.68
2022-09-23T00:56:25.087Z,8.88
2022-09-23T00:58:55.484Z,9.15
2022-09-23T01:01:25.467Z,13.60
2022-09-23T01:03:55.421Z,10.20
2022-09-23T01:06:23.331Z,8.63
2022-09-23T01:08:51.943Z,10.85
2022-09-23T01:11:37.407Z,10.45
2022-09-23T01:14:32.073Z,10.00
2022-09-23T01:17:05.082Z,8.50
2022-09-23T01:20:04.459Z,10.02
2022-09-23T01:22:39.646Z,9.60
2022-09-23T01:25:41.878Z,9.82
2022-09-23T01:28:29.309Z,10.45
2022-09-23T01:31:05.313Z,9.13
2022-09-23T01:33:40.753Z,10.43
2022-09-23T01:36:19.867Z,9.57
2022-09-23T01:38:59.104Z,10.43
2022-09-23T01:41:45.815Z,9.03
2022-09-23T01:44:20.269Z,10.68
2022-09-23T01:46:54.553Z,10.60
2022-09-23T01:49:29.021Z,8.55
2022-09-23T01:52:02.298Z,12.07
2022-09-23T01:54:34.745Z,8.07
2022-09-23T01:57:06.271Z,10.38
2022-09-23T01:59:39.361Z,10.55
2022-09-23T02:02:12.994Z,11.80
2022-09-23T02:04:47.169Z,10.05
2022-09-23T02:07:23.042Z,10.80
2022-09-23T02:09:56.627Z,8.73
2022-09-23T02:12:29.350Z,10.55
2022-09-23T02:15:01.851Z,8.57
2022-09-23T02:17:35.534Z,11.90
2022-09-23T02:20:06.623Z,9.93
2022-09-23T02:22:41.538Z,12.23
2022-09-23T02:25:12.403Z,11.65
2022-09-23T02:27:48.402Z,11.02
2022-09-23T02:30:20.058Z,8.90
2022-09-23T02:32:55.175Z,9.25
2022-09-23T02:35:33.098Z,11.90
2022-09-23T02:38:13.626Z,9.13
2022-09-23T02:40:47.793Z,8.60
2022-09-23T02:43:21.177Z,11.00
2022-09-23T02:45:49.847Z,12.23
2022-09-23T02:48:23.541Z,9.25
2022-09-23T02:50:51.619Z,10.23
2022-09-23T02:53:19.584Z,13.00
2022-09-23T02:55:47.485Z,11.43
2022-09-23T02:58:15.497Z,12.57
2022-09-23T03:00:53.941Z,9.35
2022-09-23T03:03:38.376Z,11.35
2022-09-23T03:06:17.058Z,10.43
2022-09-23T03:08:55.773Z,9.63
2022-09-23T03:11:24.685Z,9.30
2022-09-23T03:13:59.966Z,8.68
2022-09-23T03:16:34.588Z,11.25
2022-09-23T03:19:16.563Z,11.20
2022-09-23T03:21:50.250Z,9.63
2022-09-23T03:24:20.476Z,11.00
2022-09-23T03:26:49.846Z,8.88
2022-09-23T03:29:19.843Z,11.07
2022-09-23T03:31:48.043Z,10.52
2022-09-23T03:34:23.158Z,10.32
2022-09-23T03:37:00.520Z,10.55
2022-09-23T03:39:35.446Z,9.10
2022-09-23T03:42:08.171Z,9.48
2022-09-23T03:44:39.666Z,8.82
2022-09-23T03:47:07.982Z,10.55
2022-09-23T03:49:39.638Z,11.95
2022-09-23T03:52:07.754Z,8.38
2022-09-23T03:54:35.685Z,8.88
2022-09-23T03:57:04.474Z,8.80
2022-09-23T03:59:32.653Z,12.00
2022-09-23T04:02:01.810Z,8.05
2022-09-23T04:04:32.421Z,10.80
2022-09-23T04:07:02.314Z,7.87
2022-09-23T04:09:30.292Z,8.77
2022-09-23T04:11:58.314Z,9.45
2022-09-23T04:14:26.284Z,11.77
2022-09-23T04:16:54.324Z,10.25
2022-09-23T04:19:22.521Z,7.60
2022-09-23T04:21:50.548Z,10.02
2022-09-23T04:24:20.106Z,8.23
2022-09-23T04:26:52.529Z,8.65
2022-09-23T04:29:20.918Z,14.60
2022-09-23T04:31:49.314Z,9.67
2022-09-23T04:34:27.503Z,9.65
2022-09-23T04:36:55.418Z,8.82
2022-09-23T04:39:24.700Z,9.70
2022-09-23T04:41:52.625Z,10.43
2022-09-23T04:44:21.235Z,8.10
2022-09-23T04:46:49.278Z,9.02
2022-09-23T04:49:17.654Z,8.40
2022-09-23T04:51:45.735Z,9.68
2022-09-23T04:54:15.337Z,9.93
2022-09-23T04:56:44.634Z,11.27
2022-09-23T04:59:12.605Z,8.68
2022-09-23T05:01:40.616Z,9.00
2022-09-23T05:04:14.160Z,10.73
2022-09-23T05:06:45.216Z,7.80
2022-09-23T05:09:17.231Z,7.80
2022-09-23T05:11:47.143Z,8.45
2022-09-23T05:14:15.173Z,9.15
2022-09-23T05:16:43.330Z,9.30
2022-09-23T05:19:13.406Z,7.47
2022-09-23T05:21:41.422Z,9.05
2022-09-23T05:24:09.754Z,8.63
2022-09-23T05:26:38.332Z,8.20
2022-09-23T05:29:07.802Z,10.25
2022-09-23T05:31:36.734Z,8.60
2022-09-23T05:34:06.391Z,8.40
2022-09-23T05:36:38.625Z,9.93
2022-09-23T05:39:07.797Z,8.60
2022-09-23T05:41:36.022Z,8.77
2022-09-23T05:44:04.792Z,7.32
2022-09-23T05:46:34.334Z,9.65
2022-09-23T05:49:04.261Z,8.55
2022-09-23T05:51:33.688Z,11.30
2022-09-23T05:54:04.004Z,8.50
2022-09-23T05:56:33.455Z,7.65
2022-09-23T05:59:02.742Z,8.15
2022-09-23T06:01:35.290Z,8.13
2022-09-23T06:04:06.185Z,9.70
2022-09-23T06:06:36.392Z,9.37
2022-09-23T06:09:04.766Z,11.13
2022-09-23T06:11:34.312Z,9.55
2022-09-23T06:14:02.755Z,7.50
2022-09-23T06:16:33.786Z,8.40
2022-09-23T06:19:06.222Z,8.82
2022-09-23T06:21:35.984Z,8.90
2022-09-23T06:24:04.425Z,12.63
2022-09-23T06:26:34.659Z,11.70
2022-09-23T06:29:03.889Z,9.02
2022-09-23T06:31:33.979Z,8.67
2022-09-23T06:34:10.480Z,9.97
2022-09-23T06:36:44.443Z,10.48
2022-09-23T06:39:13.834Z,10.35
2022-09-23T06:41:41.749Z,11.07
2022-09-23T06:44:09.720Z,12.10
2022-09-23T06:46:39.114Z,9.48
2022-09-23T06:49:07.287Z,10.50
2022-09-23T06:51:35.303Z,11.30
2022-09-23T06:54:03.510Z,8.88
2022-09-23T06:56:36.137Z,12.93
2022-09-23T06:59:06.130Z,8.68
2022-09-23T07:01:34.431Z,10.80
2022-09-23T07:04:03.934Z,9.98
2022-09-23T07:06:31.926Z,10.07
2022-09-23T07:09:00.962Z,8.73
2022-09-23T07:11:28.953Z,10.73
2022-09-23T07:13:56.918Z,11.05
2022-09-23T07:16:24.943Z,7.80
2022-09-23T07:18:53.485Z,10.70
2022-09-23T07:21:22.781Z,10.07
2022-09-23T07:23:51.830Z,11.20
2022-09-23T07:26:20.855Z,9.60
2022-09-23T07:28:48.832Z,11.82
2022-09-23T07:31:29.435Z,11.57
2022-09-23T07:34:02.031Z,10.07
2022-09-23T07:36:32.622Z,8.77
2022-09-23T07:39:03.183Z,9.50
2022-09-23T07:41:32.267Z,9.00
2022-09-23T07:44:01.169Z,10.35
2022-09-23T07:46:32.383Z,8.23
2022-09-23T07:49:00.466Z,10.63
2022-09-23T07:51:35.712Z,12.50
2022-09-23T07:54:07.695Z,9.70
2022-09-23T07:56:37.426Z,10.45
2022-09-23T07:59:05.992Z,10.00
2022-09-23T08:01:35.909Z,10.18
2022-09-23T08:04:05.911Z,9.55
2022-09-23T08:06:35.835Z,9.93
2022-09-23T08:09:03.878Z,10.10
2022-09-23T08:11:32.852Z,10.10
2022-09-23T08:14:00.801Z,10.15
2022-09-23T08:16:28.769Z,15.27
2022-09-23T08:18:57.010Z,10.50
2022-09-23T08:21:24.939Z,11.57
2022-09-23T08:23:54.237Z,8.90
2022-09-23T08:26:22.614Z,8.63
2022-09-23T08:28:53.815Z,9.50
2022-09-23T08:31:22.486Z,8.98
2022-09-23T08:33:55.796Z,8.52
2022-09-23T08:36:24.279Z,12.88
2022-09-23T08:38:52.563Z,11.50
2022-09-23T08:41:28.905Z,12.33
2022-09-23T08:44:03.135Z,11.10
2022-09-23T08:46:41.469Z,11.25
2022-09-23T08:49:15.006Z,8.60
2022-09-23T08:51:47.582Z,8.82
2022-09-23T08:54:18.818Z,13.57
2022-09-23T08:56:52.169Z,14.90
2022-09-23T08:59:24.157Z,10.13
2022-09-23T09:01:56.829Z,12.15
2022-09-23T09:04:28.542Z,10.80
2022-09-23T09:07:24.574Z,8.95
2022-09-23T09:09:53.023Z,7.35
2022-09-23T09:12:25.980Z,7.45
2022-09-23T09:15:02.249Z,9.32
2022-09-23T09:17:38.227Z,10.68
2022-09-23T09:20:21.309Z,13.13
2022-09-23T09:22:54.598Z,11.00
2022-09-23T09:25:40.855Z,9.93
2022-09-23T09:28:18.918Z,8.90
2022-09-23T09:30:50.121Z,10.70
2022-09-23T09:33:21.728Z,8.07
2022-09-23T09:36:01.094Z,9.52
2022-09-23T09:38:29.286Z,9.32
2022-09-23T09:41:10.845Z,9.80
2022-09-23T09:43:44.169Z,8.02
2022-09-23T09:46:29.362Z,7.27
2022-09-23T09:49:00.782Z,8.88
2022-09-23T09:51:30.059Z,10.97
2022-09-23T09:54:18.359Z,8.53
2022-09-23T09:59:23.155Z,8.82
2022-09-23T10:01:51.177Z,8.75
2022-09-23T10:04:24.848Z,9.65
2022-09-23T10:07:07.983Z,10.50
2022-09-23T10:09:37.599Z,11.90
2022-09-23T10:12:15.465Z,8.98
2022-09-23T10:14:45.442Z,9.95
2022-09-23T10:17:20.492Z,10.90
2022-09-23T10:19:50.919Z,11.07
2022-09-23T10:22:23.280Z,8.43
2022-09-23T10:24:54.557Z,8.43
2022-09-23T10:27:31.442Z,9.17
2022-09-23T10:30:03.517Z,10.60
2022-09-23T10:32:33.768Z,7.53
2022-09-23T10:35:14.803Z,9.57
2022-09-23T10:37:45.453Z,9.50
2022-09-23T10:40:36.878Z,12.05
2022-09-23T10:43:41.023Z,11.45
2022-09-23T10:46:35.831Z,11.25
2022-09-23T10:49:27.601Z,8.80
2022-09-23T10:52:07.635Z,8.38
2022-09-23T10:54:48.079Z,7.35
2022-09-23T10:57:40.629Z,14.35
2022-09-23T11:00:23.141Z,8.88
2022-09-23T11:03:21.230Z,7.75
2022-09-23T11:06:01.687Z,5.90
2022-09-23T11:08:53.732Z,8.43
2022-09-23T11:11:34.096Z,6.30
2022-09-23T11:14:17.096Z,8.27
2022-09-23T11:17:08.175Z,7.95
2022-09-23T11:20:12.462Z,8.23
2022-09-23T11:22:54.182Z,10.13
2022-09-23T11:25:33.808Z,9.70
2022-09-23T11:28:35.213Z,12.85
2022-09-23T11:31:16.458Z,10.35
2022-09-23T11:34:08.968Z,5.90
2022-09-23T11:36:42.207Z,10.90
2022-09-23T11:39:16.573Z,6.82
2022-09-23T11:41:46.003Z,6.95
2022-09-23T11:44:19.915Z,6.18
2022-09-23T11:46:52.542Z,13.45
2022-09-23T11:49:27.658Z,7.22
2022-09-23T11:52:06.274Z,5.22
2022-09-23T11:54:43.856Z,9.20
2022-09-23T11:57:20.307Z,8.85
2022-09-23T11:59:53.034Z,6.63
2022-09-23T12:02:30.491Z,10.05
2022-09-23T12:05:02.912Z,7.70
2022-09-23T12:07:45.043Z,12.93
2022-09-23T12:10:13.595Z,8.30
2022-09-23T12:12:48.881Z,6.43
2022-09-23T12:15:27.827Z,7.40
2022-09-23T12:18:23.393Z,6.60
2022-09-23T12:21:49.220Z,6.17
2022-09-23T12:24:33.247Z,7.22
2022-09-23T12:27:07.167Z,10.32
2022-09-23T12:29:37.560Z,7.85
2022-09-23T12:32:09.924Z,11.00
2022-09-23T12:34:48.799Z,12.23
2022-09-23T12:37:26.481Z,14.40
2022-09-23T12:39:59.969Z,11.98
2022-09-23T12:42:31.134Z,9.57
2022-09-23T12:45:19.251Z,10.20
2022-09-23T12:47:47.251Z,9.32
2022-09-23T12:50:53.949Z,6.93
2022-09-23T12:54:15.621Z,11.23
2022-09-23T12:57:01.925Z,9.20
2022-09-23T12:59:32.449Z,14.20
2022-09-23T13:02:37.957Z,9.70
2022-09-23T13:05:38.471Z,10.63
2022-09-23T13:08:09.750Z,7.95
2022-09-23T13:10:44.086Z,10.00
2022-09-23T13:13:20.291Z,9.25
2022-09-23T13:15:48.911Z,12.60
2022-09-23T13:18:55.441Z,10.27
2022-09-23T13:22:03.621Z,7.68
2022-09-23T13:24:46.830Z,8.45
2022-09-23T13:27:20.729Z,8.13
2022-09-23T13:29:56.441Z,8.90
2022-09-23T13:32:29.563Z,10.65
2022-09-23T13:34:59.903Z,9.20
2022-09-23T13:37:38.555Z,9.38
2022-09-23T13:40:17.202Z,16.75
2022-09-23T13:42:47.342Z,10.10
2022-09-23T13:45:19.754Z,9.90
2022-09-23T13:47:49.466Z,10.27
2022-09-23T13:50:20.364Z,8.27
2022-09-23T13:52:53.784Z,8.07
2022-09-23T13:55:31.476Z,8.98
2022-09-23T13:58:02.143Z,8.70
2022-09-23T14:00:37.296Z,10.50
2022-09-23T14:03:18.173Z,14.88
2022-09-23T14:05:47.090Z,9.65
2022-09-23T14:08:15.102Z,9.05
2022-09-23T14:10:46.259Z,10.43
2022-09-23T14:13:25.969Z,12.70
2022-09-23T14:15:58.215Z,11.23
2022-09-23T14:18:36.153Z,10.32
2022-09-23T14:21:04.806Z,10.25
2022-09-23T14:23:32.939Z,11.70
2022-09-23T14:26:02.526Z,9.57
2022-09-23T14:28:30.708Z,9.57
2022-09-23T14:31:00.720Z,11.82
2022-09-23T14:33:31.771Z,12.73
2022-09-23T14:36:06.627Z,8.63
2022-09-23T14:38:52.145Z,9.80
2022-09-23T14:41:23.992Z,10.32
2022-09-23T14:43:59.048Z,7.53
2022-09-23T14:46:30.413Z,8.70
2022-09-23T14:49:06.797Z,9.83
2022-09-23T14:51:42.419Z,10.30
2022-09-23T14:54:43.726Z,11.65
2022-09-23T14:57:35.706Z,8.10
2022-09-23T15:00:16.550Z,10.63
2022-09-23T15:02:58.272Z,10.18
2022-09-23T15:05:39.218Z,10.75
2022-09-23T15:08:07.802Z,15.50
2022-09-23T15:10:39.124Z,17.00
2022-09-23T15:13:10.065Z,8.50
2022-09-23T15:15:38.419Z,13.82
2022-09-23T15:18:15.539Z,12.48
2022-09-23T15:20:50.497Z,11.67
2022-09-23T15:23:34.535Z,11.52
2022-09-23T15:26:07.014Z,13.57
2022-09-23T15:28:35.103Z,11.98
2022-09-23T15:31:03.236Z,12.00
2022-09-23T15:33:35.241Z,18.35
2022-09-23T15:36:03.564Z,15.52
2022-09-23T15:38:31.952Z,18.40
2022-09-23T15:40:59.929Z,18.17
2022-09-23T15:43:27.951Z,16.80
2022-09-23T15:45:58.666Z,17.30
2022-09-23T15:48:31.635Z,17.52
2022-09-23T15:51:06.832Z,17.80
2022-09-23T15:53:35.441Z,18.33
2022-09-23T15:56:04.239Z,18.20
2022-09-23T15:58:32.231Z,19.83
2022-09-23T16:01:01.370Z,20.38
2022-09-23T16:03:29.478Z,22.58
2022-09-23T16:06:13.489Z,19.35
2022-09-23T16:08:42.266Z,21.02
2022-09-23T16:11:19.258Z,20.00
2022-09-23T16:13:47.190Z,24.75
2022-09-23T16:16:15.222Z,18.90
2022-09-23T16:18:44.057Z,22.27
2022-09-23T16:21:15.550Z,20.77
2022-09-23T16:23:47.335Z,16.77
2022-09-23T16:26:18.781Z,20.48
2022-09-23T16:28:48.332Z,17.52
2022-09-23T16:31:17.062Z,19.88
2022-09-23T16:33:45.237Z,19.47
2022-09-23T16:36:22.402Z,18.17
2022-09-23T16:38:50.487Z,17.50
2022-09-23T16:41:18.403Z,18.02
2022-09-23T16:43:46.358Z,19.17
2022-09-23T16:46:16.569Z,18.42
2022-09-23T16:48:49.688Z,21.15
2022-09-23T16:51:23.843Z,23.10
2022-09-23T16:53:52.679Z,19.48
2022-09-23T16:56:27.989Z,19.63
2022-09-23T16:58:57.305Z,18.58
2022-09-23T17:01:50.282Z,19.63
2022-09-23T17:04:19.470Z,18.52
2022-09-23T17:06:50.204Z,19.40
2022-09-23T17:09:19.862Z,16.23
2022-09-23T17:11:52.918Z,20.27
2022-09-23T17:14:21.133Z,20.00
2022-09-23T17:16:49.136Z,21.38
2022-09-23T17:19:17.158Z,22.93
2022-09-23T17:21:45.084Z,20.42
2022-09-23T17:24:14.406Z,22.67
2022-09-23T17:26:44.237Z,20.52
2022-09-23T17:29:12.304Z,18.65
2022-09-23T17:31:40.267Z,20.50
2022-09-23T17:34:08.228Z,16.75
2022-09-23T17:36:36.178Z,16.17
2022-09-23T17:39:05.355Z,19.23
2022-09-23T17:41:34.663Z,15.50
2022-09-23T17:44:03.035Z,16.55
2022-09-23T17:46:31.054Z,18.35
2022-09-23T17:48:59.233Z,20.50
2022-09-23T17:51:27.589Z,22.17
2022-09-23T17:53:55.566Z,16.63
2022-09-23T17:56:24.875Z,24.70
2022-09-23T17:58:55.209Z,20.77
2022-09-23T18:01:24.822Z,23.40
2022-09-23T18:03:54.959Z,18.30
2022-09-23T18:06:24.617Z,23.85
2022-09-23T18:08:53.534Z,17.38
2022-09-23T18:11:23.615Z,23.08
2022-09-23T18:13:54.491Z,16.48
2022-09-23T18:16:24.651Z,18.47
2022-09-23T18:18:53.486Z,18.25
2022-09-23T18:21:21.840Z,20.30
2022-09-23T18:23:50.381Z,18.40
2022-09-23T18:26:19.621Z,19.73
2022-09-23T18:28:48.165Z,17.33
2022-09-23T18:31:17.832Z,21.53
2022-09-23T18:33:50.202Z,15.52
2022-09-23T18:36:18.300Z,21.23
2022-09-23T18:38:46.654Z,21.58
2022-09-23T18:41:14.943Z,19.83
2022-09-23T18:43:47.635Z,15.63
2022-09-23T18:46:19.315Z,19.63
2022-09-23T18:49:05.140Z,19.38
2022-09-23T18:51:34.875Z,17.77
2022-09-23T18:54:05.338Z,18.15
2022-09-23T18:56:37.180Z,18.50
2022-09-23T18:59:07.138Z,18.63
2022-09-23T19:01:36.808Z,17.38
2022-09-23T19:04:05.097Z,20.25
2022-09-23T19:06:34.640Z,19.00
2022-09-23T19:09:02.828Z,19.80
2022-09-23T19:11:30.983Z,20.58
2022-09-23T19:14:01.916Z,21.70
2022-09-23T19:16:31.741Z,23.37
2022-09-23T19:19:02.057Z,20.20
2022-09-23T19:21:31.218Z,19.95
2022-09-23T19:24:03.028Z,21.80
2022-09-23T19:26:33.617Z,19.57
2022-09-23T19:29:02.691Z,18.95
2022-09-23T19:31:33.398Z,16.50
2022-09-23T19:34:04.521Z,16.92
2022-09-23T19:36:34.117Z,14.07
2022-09-23T19:39:03.648Z,15.73
2022-09-23T19:41:33.367Z,17.52
2022-09-23T19:44:03.586Z,15.45
2022-09-23T19:46:32.438Z,16.80
2022-09-23T19:49:02.841Z,18.80
2022-09-23T19:51:31.677Z,15.68
2022-09-23T19:54:01.070Z,14.97
2022-09-23T19:56:29.373Z,15.15
2022-09-23T19:58:58.295Z,16.98
2022-09-23T20:01:27.329Z,14.37
2022-09-23T20:03:55.825Z,15.45
2022-09-23T20:06:25.166Z,16.17
2022-09-23T20:08:53.115Z,16.00
2022-09-23T20:11:28.094Z,20.25
2022-09-23T20:14:02.771Z,16.80
2022-09-23T20:16:32.875Z,16.20
2022-09-23T20:19:01.868Z,13.50
2022-09-23T20:21:31.520Z,16.70
2022-09-23T20:23:59.625Z,14.67
2022-09-23T20:26:45.087Z,17.25
2022-09-23T20:29:13.163Z,15.60
2022-09-23T20:31:41.601Z,14.70
2022-09-23T20:34:11.012Z,14.82
2022-09-23T20:36:42.505Z,16.20
2022-09-23T20:39:10.780Z,18.75
2022-09-23T20:41:39.634Z,19.95
2022-09-23T20:44:12.287Z,16.85
2022-09-23T20:46:44.119Z,20.03
2022-09-23T20:49:15.003Z,18.97
2022-09-23T20:51:44.319Z,15.27
2022-09-23T20:54:13.008Z,14.97
2022-09-23T20:56:41.177Z,16.65
2022-09-23T20:59:11.305Z,17.67
2022-09-23T21:01:39.251Z,14.93
2022-09-23T21:04:08.006Z,15.25
2022-09-23T21:06:37.049Z,14.38
2022-09-23T21:09:07.684Z,13.70
2022-09-23T21:11:35.773Z,14.15
2022-09-23T21:14:04.017Z,13.35
2022-09-23T21:16:32.336Z,15.63
2022-09-23T21:19:00.495Z,16.17
2022-09-23T21:21:28.381Z,12.63
2022-09-23T21:24:07.022Z,18.33
2022-09-23T21:26:47.316Z,15.25
2022-09-23T21:29:15.289Z,12.60
2022-09-23T21:31:43.230Z,15.53
2022-09-23T21:34:14.506Z,14.43
2022-09-23T21:36:44.149Z,15.32
2022-09-23T21:39:12.941Z,14.52
2022-09-23T21:41:41.141Z,14.48
2022-09-23T21:44:10.540Z,13.50
2022-09-23T21:46:38.538Z,12.70
2022-09-23T21:49:06.598Z,14.50
2022-09-23T21:51:40.496Z,14.60
2022-09-23T21:54:12.637Z,13.23
2022-09-23T21:56:40.569Z,15.23
2022-09-23T21:59:10.192Z,13.83
2022-09-23T22:01:40.862Z,14.70
2022-09-23T22:04:15.121Z,16.77
2022-09-23T22:06:43.258Z,15.70
2022-09-23T22:09:14.516Z,17.13
2022-09-23T22:12:00.700Z,14.32
2022-09-23T22:14:30.582Z,16.05
2022-09-23T22:17:01.376Z,18.05
2022-09-23T22:19:35.010Z,16.88
2022-09-23T22:22:07.247Z,17.00
2022-09-23T22:24:35.268Z,18.58
2022-09-23T22:27:03.167Z,19.23
2022-09-23T22:29:49.724Z,16.90
2022-09-23T22:32:43.909Z,18.27
2022-09-23T22:35:13.116Z,19.27
2022-09-23T22:37:40.981Z,18.58
2022-09-23T22:40:11.506Z,23.75
2022-09-23T22:42:40.764Z,19.40
2022-09-23T22:45:11.728Z,23.73
2022-09-23T22:47:44.019Z,20.55
2022-09-23T22:50:13.844Z,20.65
2022-09-23T22:52:41.827Z,24.40
2022-09-23T22:55:10.465Z,20.80
2022-09-23T22:57:38.468Z,21.23
2022-09-23T23:00:08.418Z,21.20
2022-09-23T23:02:37.727Z,21.08
2022-09-23T23:05:06.242Z,19.80
2022-09-23T23:07:36.231Z,21.85
2022-09-23T23:10:04.665Z,17.73
2022-09-23T23:12:33.691Z,17.60
2022-09-23T23:15:01.615Z,16.83
2022-09-23T23:17:29.834Z,16.52
2022-09-23T23:19:59.112Z,15.75
2022-09-23T23:22:28.396Z,17.50
2022-09-23T23:24:56.394Z,14.23
2022-09-23T23:27:24.287Z,14.32
2022-09-23T23:29:52.214Z,15.02
2022-09-23T23:32:20.082Z,13.57
2022-09-23T23:34:48.220Z,12.80
2022-09-23T23:37:20.824Z,15.00
2022-09-23T23:39:49.017Z,13.40
2022-09-23T23:42:17.012Z,13.43
2022-09-23T23:44:44.894Z,13.57
2022-09-23T23:47:12.959Z,11.32
2022-09-23T23:49:40.856Z,11.93
2022-09-23T23:52:08.738Z,15.10
2022-09-23T23:54:38.451Z,11.80
2022-09-23T23:57:06.432Z,11.75
2022-09-23T23:59:34.359Z,12.73
